Cold Bay Airport Cold Bay US
ICAO: PACD
IATA:
Category: Medium
Scheduled Services:

Elevation: 96 ft
TransAlt. 18000 ft.

Airport Communications:
ASOS:135.75
ANCHORAGE CNTR:118.5
CTAF:123.6
RDO:123.6
KENAI RDO:123.6

PACD Zoom In..

If you have problems with the map follow the link
https://www.worldairports.se/pages/airport.php?
ICAO=PACD

Runways:

(A) RW 08 length 6235 ft width 150 ft
---- / hdg 83

(B) RW 15 length 10180 ft width 150 ft
ILS 110.30 / hdg 146

(C) RW 26 length 6235 ft width 150 ft
---- / hdg 263

(D) RW 33 length 10180 ft width 150 ft
---- / hdg 326

Location; PACD
Day. 20 / Time. 09.53 Zulu
* Altimeter: 29.45
* Temperature: -12° c. -10.4°f.
* Wind from: 000° Speed 00 kn.
Dewpoint: -13° c.
Visibility: 10 Statute Miles.
Clouds: Clear (automated report).

PACD 200953Z AUTO 00000KT 10SM CLR M12/M13 A2945 RMK AO2 SLP974 I1000 T11221133 TSNO $


Wind - Calm.

 
 
jpsmedia worldairports.se 2020   terms of use